sensor_id;sensor_type;location;lat;lon;timestamp;pressure;altitude;pressure_sealevel;temperature;humidity
73240;BME280;61452;40.054;4.110;2023-04-30T00:03:42;101410.75;;;20.52;61.83
73240;BME280;61452;40.054;4.110;2023-04-30T00:08:44;101403.72;;;20.51;61.97
73240;BME280;61452;40.054;4.110;2023-04-30T00:13:46;101426.00;;;20.50;62.26
73240;BME280;61452;40.054;4.110;2023-04-30T00:18:49;101432.19;;;20.51;62.48
73240;BME280;61452;40.054;4.110;2023-04-30T00:23:51;101426.00;;;20.50;62.15
73240;BME280;61452;40.054;4.110;2023-04-30T00:28:53;101416.66;;;20.56;61.71
73240;BME280;61452;40.054;4.110;2023-04-30T00:33:55;101413.16;;;20.55;61.88
73240;BME280;61452;40.054;4.110;2023-04-30T00:38:57;101392.19;;;20.51;62.12
73240;BME280;61452;40.054;4.110;2023-04-30T00:43:59;101429.41;;;20.52;62.11
73240;BME280;61452;40.054;4.110;2023-04-30T00:49:03;101466.59;;;20.54;62.07
73240;BME280;61452;40.054;4.110;2023-04-30T00:54:06;101450.13;;;20.49;62.79
73240;BME280;61452;40.054;4.110;2023-04-30T00:59:09;101450.72;;;20.52;62.01
73240;BME280;61452;40.054;4.110;2023-04-30T01:04:11;101447.22;;;20.52;62.37
73240;BME280;61452;40.054;4.110;2023-04-30T01:09:14;101478.34;;;20.51;62.25
73240;BME280;61452;40.054;4.110;2023-04-30T01:14:36;101469.38;;;20.52;62.29
73240;BME280;61452;40.054;4.110;2023-04-30T01:19:45;101461.88;;;20.57;61.47
73240;BME280;61452;40.054;4.110;2023-04-30T01:30:02;101450.00;;;20.50;62.76
73240;BME280;61452;40.054;4.110;2023-04-30T01:35:05;101442.84;;;20.51;62.14
73240;BME280;61452;40.054;4.110;2023-04-30T01:40:23;101450.84;;;20.51;61.98
73240;BME280;61452;40.054;4.110;2023-04-30T01:50:56;101460.66;;;20.50;62.02
73240;BME280;61452;40.054;4.110;2023-04-30T01:56:05;101464.16;;;20.51;62.04
73240;BME280;61452;40.054;4.110;2023-04-30T02:01:25;101481.63;;;20.55;61.47
73240;BME280;61452;40.054;4.110;2023-04-30T02:06:28;101472.03;;;20.52;62.08
73240;BME280;61452;40.054;4.110;2023-04-30T02:11:32;101463.19;;;20.52;62.08
73240;BME280;61452;40.054;4.110;2023-04-30T02:16:34;101460.66;;;20.50;62.02
73240;BME280;61452;40.054;4.110;2023-04-30T02:21:36;101466.84;;;20.51;61.76
73240;BME280;61452;40.054;4.110;2023-04-30T02:26:38;101468.53;;;20.52;61.83
73240;BME280;61452;40.054;4.110;2023-04-30T02:31:41;101455.19;;;20.52;61.60
73240;BME280;61452;40.054;4.110;2023-04-30T02:36:44;101442.84;;;20.51;61.61
73240;BME280;61452;40.054;4.110;2023-04-30T02:41:46;101429.63;;;20.49;61.70
73240;BME280;61452;40.054;4.110;2023-04-30T02:46:48;101424.19;;;20.51;61.40
73240;BME280;61452;40.054;4.110;2023-04-30T02:51:52;101426.63;;;20.54;61.22
73240;BME280;61452;40.054;4.110;2023-04-30T02:56:54;101430.13;;;20.54;60.83
73240;BME280;61452;40.054;4.110;2023-04-30T03:01:57;101434.00;;;20.50;61.03
73240;BME280;61452;40.054;4.110;2023-04-30T03:06:59;101413.63;;;20.49;60.88
73240;BME280;61452;40.054;4.110;2023-04-30T03:12:01;101418.84;;;20.51;60.72
73240;BME280;61452;40.054;4.110;2023-04-30T03:17:03;101430.47;;;20.50;60.67
73240;BME280;61452;40.054;4.110;2023-04-30T03:22:05;101428.66;;;20.50;60.82
73240;BME280;61452;40.054;4.110;2023-04-30T03:27:07;101423.97;;;20.54;60.88
73240;BME280;61452;40.054;4.110;2023-04-30T03:32:09;101431.81;;;20.55;60.62
73240;BME280;61452;40.054;4.110;2023-04-30T03:37:11;101428.56;;;20.52;60.90
73240;BME280;61452;40.054;4.110;2023-04-30T03:42:14;101426.84;;;20.51;60.95
73240;BME280;61452;40.054;4.110;2023-04-30T03:47:16;101402.66;;;20.43;61.14
73240;BME280;61452;40.054;4.110;2023-04-30T03:52:18;101418.00;;;20.50;61.28
73240;BME280;61452;40.054;4.110;2023-04-30T03:57:21;101417.91;;;20.52;61.23
73240;BME280;61452;40.054;4.110;2023-04-30T04:02:23;101418.84;;;20.51;61.22
73240;BME280;61452;40.054;4.110;2023-04-30T04:07:26;101410.75;;;20.52;61.17
73240;BME280;61452;40.054;4.110;2023-04-30T04:12:29;101406.25;;;20.53;60.92
73240;BME280;61452;40.054;4.110;2023-04-30T04:17:32;101401.16;;;20.50;61.37
73240;BME280;61452;40.054;4.110;2023-04-30T04:22:34;101406.50;;;20.50;61.32
73240;BME280;61452;40.054;4.110;2023-04-30T04:27:36;101415.09;;;20.53;61.27
73240;BME280;61452;40.054;4.110;2023-04-30T04:32:38;101410.75;;;20.52;60.79
73240;BME280;61452;40.054;4.110;2023-04-30T04:37:47;101406.75;;;20.47;61.38
73240;BME280;61452;40.054;4.110;2023-04-30T04:42:50;101408.47;;;20.48;61.04
73240;BME280;61452;40.054;4.110;2023-04-30T04:47:52;101418.16;;;20.49;61.84
73240;BME280;61452;40.054;4.110;2023-04-30T04:52:55;101426.97;;;20.49;61.59
73240;BME280;61452;40.054;4.110;2023-04-30T04:57:57;101431.47;;;20.49;61.85
73240;BME280;61452;40.054;4.110;2023-04-30T05:02:59;101428.66;;;20.50;62.01
73240;BME280;61452;40.054;4.110;2023-04-30T05:08:02;101430.63;;;20.48;62.11
73240;BME280;61452;40.054;4.110;2023-04-30T05:13:05;101428.66;;;20.50;62.35
73240;BME280;61452;40.054;4.110;2023-04-30T05:18:07;101437.28;;;20.54;61.62
73240;BME280;61452;40.054;4.110;2023-04-30T05:23:09;101447.47;;;20.49;61.89
73240;BME280;61452;40.054;4.110;2023-04-30T05:28:11;101452.66;;;20.50;62.50
73240;BME280;61452;40.054;4.110;2023-04-30T05:33:13;101466.13;;;20.49;62.62
73240;BME280;61452;40.054;4.110;2023-04-30T05:38:15;101461.75;;;20.48;62.38
73240;BME280;61452;40.054;4.110;2023-04-30T05:43:17;101466.94;;;20.49;62.14
73240;BME280;61452;40.054;4.110;2023-04-30T05:48:19;101474.94;;;20.49;62.42
73240;BME280;61452;40.054;4.110;2023-04-30T05:53:21;101481.13;;;20.50;62.54
73240;BME280;61452;40.054;4.110;2023-04-30T05:58:24;101498.81;;;20.51;62.65
73240;BME280;61452;40.054;4.110;2023-04-30T06:03:26;101513.84;;;20.52;62.53
73240;BME280;61452;40.054;4.110;2023-04-30T06:08:28;101519.16;;;20.52;62.88
73240;BME280;61452;40.054;4.110;2023-04-30T06:13:31;101514.81;;;20.51;62.75
73240;BME280;61452;40.054;4.110;2023-04-30T06:18:33;101511.06;;;20.53;62.69
73240;BME280;61452;40.054;4.110;2023-04-30T06:23:35;101509.25;;;20.54;62.87
73240;BME280;61452;40.054;4.110;2023-04-30T06:28:38;101514.69;;;20.52;62.62
73240;BME280;61452;40.054;4.110;2023-04-30T06:33:40;101522.56;;;20.54;62.70
73240;BME280;61452;40.054;4.110;2023-04-30T06:38:42;101531.53;;;20.53;62.45
73240;BME280;61452;40.054;4.110;2023-04-30T06:43:44;101527.16;;;20.52;62.92
73240;BME280;61452;40.054;4.110;2023-04-30T06:48:47;101528.25;;;20.49;63.42
73240;BME280;61452;40.054;4.110;2023-04-30T06:53:49;101530.09;;;20.49;63.02
73240;BME280;61452;40.054;4.110;2023-04-30T06:58:51;101539.91;;;20.48;63.24
73240;BME280;61452;40.054;4.110;2023-04-30T07:03:53;101534.56;;;20.48;63.05
73240;BME280;61452;40.054;4.110;2023-04-30T07:08:56;101543.06;;;20.53;62.37
73240;BME280;61452;40.054;4.110;2023-04-30T07:13:58;101542.69;;;20.47;62.53
73240;BME280;61452;40.054;4.110;2023-04-30T07:19:00;101554.06;;;20.49;63.54
73240;BME280;61452;40.054;4.110;2023-04-30T07:24:02;101566.56;;;20.48;62.92
73240;BME280;61452;40.054;4.110;2023-04-30T07:29:04;101583.25;;;20.50;63.52
73240;BME280;61452;40.054;4.110;2023-04-30T07:34:06;101588.59;;;20.50;62.88
73240;BME280;61452;40.054;4.110;2023-04-30T07:39:09;101594.75;;;20.51;62.70
73240;BME280;61452;40.054;4.110;2023-04-30T07:44:12;101587.72;;;20.50;63.15
73240;BME280;61452;40.054;4.110;2023-04-30T07:49:14;101596.72;;;20.49;63.38
73240;BME280;61452;40.054;4.110;2023-04-30T07:54:16;101605.53;;;20.49;63.06
73240;BME280;61452;40.054;4.110;2023-04-30T07:59:19;101604.72;;;20.49;62.99
73240;BME280;61452;40.054;4.110;2023-04-30T08:04:22;101605.69;;;20.48;63.21
73240;BME280;61452;40.054;4.110;2023-04-30T08:09:24;101614.53;;;20.48;63.32
73240;BME280;61452;40.054;4.110;2023-04-30T08:14:27;101606.25;;;20.40;62.65
73240;BME280;61452;40.054;4.110;2023-04-30T08:19:29;101629.78;;;20.46;62.68
73240;BME280;61452;40.054;4.110;2023-04-30T08:24:31;101636.81;;;20.47;62.50
73240;BME280;61452;40.054;4.110;2023-04-30T08:29:33;101635.97;;;20.47;62.19
73240;BME280;61452;40.054;4.110;2023-04-30T08:34:35;101628.94;;;20.46;62.34
73240;BME280;61452;40.054;4.110;2023-04-30T08:39:38;101623.47;;;20.47;62.24
73240;BME280;61452;40.054;4.110;2023-04-30T08:44:40;101635.72;;;20.50;62.24
73240;BME280;61452;40.054;4.110;2023-04-30T08:49:44;101651.00;;;20.48;62.06
73240;BME280;61452;40.054;4.110;2023-04-30T08:54:47;101657.38;;;20.45;62.20
73240;BME280;61452;40.054;4.110;2023-04-30T08:59:52;101670.59;;;20.47;62.05
73240;BME280;61452;40.054;4.110;2023-04-30T09:04:55;101675.19;;;20.45;62.31
73240;BME280;61452;40.054;4.110;2023-04-30T09:09:57;101683.09;;;20.46;62.47
73240;BME280;61452;40.054;4.110;2023-04-30T09:15:05;101694.59;;;20.47;62.47
73240;BME280;61452;40.054;4.110;2023-04-30T09:20:11;101688.53;;;20.45;62.37
73240;BME280;61452;40.054;4.110;2023-04-30T09:25:13;101698.22;;;20.46;62.20
73240;BME280;61452;40.054;4.110;2023-04-30T09:30:30;101700.88;;;20.46;62.16
73240;BME280;61452;40.054;4.110;2023-04-30T09:35:36;101709.47;;;20.49;62.18
73240;BME280;61452;40.054;4.110;2023-04-30T09:40:40;101706.22;;;20.46;62.34
73240;BME280;61452;40.054;4.110;2023-04-30T09:45:47;101702.69;;;20.45;62.43
73240;BME280;61452;40.054;4.110;2023-04-30T09:50:52;101693.75;;;20.46;62.07
73240;BME280;61452;40.054;4.110;2023-04-30T09:55:56;101690.13;;;20.47;62.27
73240;BME280;61452;40.054;4.110;2023-04-30T10:01:01;101684.69;;;20.49;62.06
73240;BME280;61452;40.054;4.110;2023-04-30T10:06:06;101670.59;;;20.47;62.41
73240;BME280;61452;40.054;4.110;2023-04-30T10:11:09;101671.56;;;20.46;62.32
73240;BME280;61452;40.054;4.110;2023-04-30T10:16:49;101658.25;;;20.46;62.10
73240;BME280;61452;40.054;4.110;2023-04-30T10:21:52;101659.84;;;20.48;62.07
73240;BME280;61452;40.054;4.110;2023-04-30T10:26:54;101666.97;;;20.48;61.87
73240;BME280;61452;40.054;4.110;2023-04-30T10:31:58;101662.59;;;20.47;61.87
73240;BME280;61452;40.054;4.110;2023-04-30T10:38:02;101658.25;;;20.46;61.97
73240;BME280;61452;40.054;4.110;2023-04-30T10:42:36;101661.66;;;20.48;61.80
73240;BME280;61452;40.054;4.110;2023-04-30T10:47:43;101663.47;;;20.47;61.82
73240;BME280;61452;40.054;4.110;2023-04-30T10:53:00;101669.66;;;20.48;61.67
73240;BME280;61452;40.054;4.110;2023-04-30T10:58:25;101655.56;;;20.46;61.63
73240;BME280;61452;40.054;4.110;2023-04-30T11:03:28;101660.56;;;20.50;61.48
73240;BME280;61452;40.054;4.110;2023-04-30T11:08:32;101652.06;;;20.45;61.83
73240;BME280;61452;40.054;4.110;2023-04-30T11:13:39;101652.81;;;20.47;61.55
73240;BME280;61452;40.054;4.110;2023-04-30T11:18:44;101652.69;;;20.49;61.49
73240;BME280;61452;40.054;4.110;2023-04-30T11:23:48;101643.00;;;20.48;61.36
73240;BME280;61452;40.054;4.110;2023-04-30T11:28:50;101654.63;;;20.47;61.44
73240;BME280;61452;40.054;4.110;2023-04-30T11:33:55;101658.97;;;20.48;61.51
73240;BME280;61452;40.054;4.110;2023-04-30T11:38:58;101666.03;;;20.49;61.64
73240;BME280;61452;40.054;4.110;2023-04-30T11:44:00;101667.84;;;20.48;61.54
73240;BME280;61452;40.054;4.110;2023-04-30T11:49:02;101667.84;;;20.48;61.66
73240;BME280;61452;40.054;4.110;2023-04-30T11:54:07;101676.53;;;20.50;61.67
73240;BME280;61452;40.054;4.110;2023-04-30T11:59:09;101684.44;;;20.52;61.37
73240;BME280;61452;40.054;4.110;2023-04-30T12:04:12;101680.91;;;20.51;61.44
73240;BME280;61452;40.054;4.110;2023-04-30T12:09:14;101674.84;;;20.49;61.40
73240;BME280;61452;40.054;4.110;2023-04-30T12:14:16;101675.56;;;20.51;61.44
73240;BME280;61452;40.054;4.110;2023-04-30T12:19:20;101683.69;;;20.50;61.25
73240;BME280;61452;40.054;4.110;2023-04-30T12:24:26;101674.84;;;20.49;61.22
73240;BME280;61452;40.054;4.110;2023-04-30T12:29:28;101671.22;;;20.50;61.29
73240;BME280;61452;40.054;4.110;2023-04-30T12:34:30;101673.88;;;20.50;61.16
73240;BME280;61452;40.054;4.110;2023-04-30T12:39:34;101671.94;;;20.52;61.19
73240;BME280;61452;40.054;4.110;2023-04-30T12:44:43;101676.69;;;20.49;61.35
73240;BME280;61452;40.054;4.110;2023-04-30T12:49:46;101675.56;;;20.51;61.02
73240;BME280;61452;40.054;4.110;2023-04-30T12:54:48;101671.94;;;20.52;61.06
73240;BME280;61452;40.054;4.110;2023-04-30T12:59:57;101668.53;;;20.50;61.13
73240;BME280;61452;40.054;4.110;2023-04-30T13:05:00;101669.28;;;20.52;61.22
73240;BME280;61452;40.054;4.110;2023-04-30T13:10:02;101674.50;;;20.54;61.13
73240;BME280;61452;40.054;4.110;2023-04-30T13:15:05;101668.22;;;20.55;61.06
73240;BME280;61452;40.054;4.110;2023-04-30T13:20:08;101666.63;;;20.52;60.97
73240;BME280;61452;40.054;4.110;2023-04-30T13:25:10;101651.47;;;20.53;60.87
73240;BME280;61452;40.054;4.110;2023-04-30T13:30:12;101642.38;;;20.55;61.09
73240;BME280;61452;40.054;4.110;2023-04-30T13:35:15;101630.16;;;20.53;61.06
73240;BME280;61452;40.054;4.110;2023-04-30T13:40:18;101631.00;;;20.53;61.15
73240;BME280;61452;40.054;4.110;2023-04-30T13:45:20;101635.59;;;20.51;61.04
73240;BME280;61452;40.054;4.110;2023-04-30T13:50:22;101629.06;;;20.55;61.04
73240;BME280;61452;40.054;4.110;2023-04-30T13:55:25;101626.38;;;20.55;61.08
73240;BME280;61452;40.054;4.110;2023-04-30T14:00:27;101629.06;;;20.55;61.13
73240;BME280;61452;40.054;4.110;2023-04-30T14:05:30;101621.91;;;20.56;61.13
73240;BME280;61452;40.054;4.110;2023-04-30T14:10:32;101621.19;;;20.54;61.29
73240;BME280;61452;40.054;4.110;2023-04-30T14:15:34;101628.22;;;20.55;61.23
73240;BME280;61452;40.054;4.110;2023-04-30T14:20:37;101631.59;;;20.57;61.21
73240;BME280;61452;40.054;4.110;2023-04-30T14:25:40;101627.38;;;20.54;61.14
73240;BME280;61452;40.054;4.110;2023-04-30T14:30:43;101619.38;;;20.54;61.16
73240;BME280;61452;40.054;4.110;2023-04-30T14:35:45;101621.06;;;20.55;61.18
73240;BME280;61452;40.054;4.110;2023-04-30T14:40:48;101618.38;;;20.55;61.55
73240;BME280;61452;40.054;4.110;2023-04-30T14:45:53;101619.72;;;20.50;61.22
73240;BME280;61452;40.054;4.110;2023-04-30T14:50:55;101618.38;;;20.55;61.43
73240;BME280;61452;40.054;4.110;2023-04-30T14:55:57;101613.69;;;20.59;61.21
73240;BME280;61452;40.054;4.110;2023-04-30T15:00:59;101618.28;;;20.57;61.22
73240;BME280;61452;40.054;4.110;2023-04-30T15:06:02;101614.06;;;20.54;61.31
73240;BME280;61452;40.054;4.110;2023-04-30T15:11:04;101625.44;;;20.56;61.58
73240;BME280;61452;40.054;4.110;2023-04-30T15:16:07;101628.94;;;20.57;61.70
73240;BME280;61452;40.054;4.110;2023-04-30T15:21:10;101637.91;;;20.56;62.07
73240;BME280;61452;40.054;4.110;2023-04-30T15:26:12;101633.31;;;20.58;61.82
73240;BME280;61452;40.054;4.110;2023-04-30T15:31:14;101625.31;;;20.58;61.43
73240;BME280;61452;40.054;4.110;2023-04-30T15:36:16;101614.44;;;20.61;61.18
73240;BME280;61452;40.054;4.110;2023-04-30T15:41:18;101605.91;;;20.56;61.33
73240;BME280;61452;40.054;4.110;2023-04-30T15:46:20;101608.56;;;20.56;61.76
73240;BME280;61452;40.054;4.110;2023-04-30T15:51:23;101619.97;;;20.58;61.62
73240;BME280;61452;40.054;4.110;2023-04-30T15:56:25;101627.25;;;20.56;61.67
73240;BME280;61452;40.054;4.110;2023-04-30T16:01:27;101610.75;;;20.51;61.51
73240;BME280;61452;40.054;4.110;2023-04-30T16:06:30;101622.44;;;20.61;61.46
73240;BME280;61452;40.054;4.110;2023-04-30T16:11:35;101636.47;;;20.63;61.15
73240;BME280;61452;40.054;4.110;2023-04-30T16:16:37;101636.56;;;20.62;61.43
73240;BME280;61452;40.054;4.110;2023-04-30T16:21:39;101646.53;;;20.59;61.81
73240;BME280;61452;40.054;4.110;2023-04-30T16:26:42;101650.66;;;20.64;61.13
73240;BME280;61452;40.054;4.110;2023-04-30T16:31:44;101653.19;;;20.65;61.25
73240;BME280;61452;40.054;4.110;2023-04-30T16:36:47;101652.56;;;20.62;61.96
73240;BME280;61452;40.054;4.110;2023-04-30T16:41:49;101654.16;;;20.64;61.30
73240;BME280;61452;40.054;4.110;2023-04-30T16:46:51;101651.38;;;20.66;61.19
73240;BME280;61452;40.054;4.110;2023-04-30T16:51:53;101665.78;;;20.63;61.25
73240;BME280;61452;40.054;4.110;2023-04-30T16:56:56;101652.22;;;20.55;61.38
73240;BME280;61452;40.054;4.110;2023-04-30T17:01:58;101656.94;;;20.63;61.34
73240;BME280;61452;40.054;4.110;2023-04-30T17:07:02;101662.91;;;20.66;61.42
73240;BME280;61452;40.054;4.110;2023-04-30T17:12:05;101660.25;;;20.66;61.57
73240;BME280;61452;40.054;4.110;2023-04-30T17:17:07;101651.13;;;20.69;61.38
73240;BME280;61452;40.054;4.110;2023-04-30T17:22:09;101647.75;;;20.67;61.25
73240;BME280;61452;40.054;4.110;2023-04-30T17:27:11;101640.84;;;20.64;61.62
73240;BME280;61452;40.054;4.110;2023-04-30T17:32:13;101646.78;;;20.68;61.17
73240;BME280;61452;40.054;4.110;2023-04-30T17:37:18;101651.13;;;20.69;61.27
73240;BME280;61452;40.054;4.110;2023-04-30T17:42:20;101646.91;;;20.66;61.41
73240;BME280;61452;40.054;4.110;2023-04-30T17:47:22;101641.69;;;20.65;61.25
73240;BME280;61452;40.054;4.110;2023-04-30T17:52:24;101639.97;;;20.64;61.18
73240;BME280;61452;40.054;4.110;2023-04-30T17:57:26;101633.69;;;20.65;61.36
73240;BME280;61452;40.054;4.110;2023-04-30T18:02:29;101630.06;;;20.66;61.00
73240;BME280;61452;40.054;4.110;2023-04-30T18:07:31;101644.97;;;20.68;61.07
73240;BME280;61452;40.054;4.110;2023-04-30T18:12:34;101638.91;;;20.66;61.00
73240;BME280;61452;40.054;4.110;2023-04-30T18:17:36;101642.66;;;20.64;61.12
73240;BME280;61452;40.054;4.110;2023-04-30T18:22:38;101648.94;;;20.63;61.12
73240;BME280;61452;40.054;4.110;2023-04-30T18:27:44;101653.44;;;20.62;60.95
73240;BME280;61452;40.054;4.110;2023-04-30T18:32:46;101650.53;;;20.65;60.61
73240;BME280;61452;40.054;4.110;2023-04-30T18:37:48;101657.44;;;20.68;60.63
73240;BME280;61452;40.054;4.110;2023-04-30T18:42:50;101666.53;;;20.65;60.75
73240;BME280;61452;40.054;4.110;2023-04-30T18:47:52;101662.06;;;20.66;60.55
73240;BME280;61452;40.054;4.110;2023-04-30T18:52:54;101684.94;;;20.68;60.54
73240;BME280;61452;40.054;4.110;2023-04-30T18:57:56;101684.94;;;20.68;60.46
73240;BME280;61452;40.054;4.110;2023-04-30T19:02:58;101681.53;;;20.55;60.51
73240;BME280;61452;40.054;4.110;2023-04-30T19:08:01;101684.34;;;20.65;60.54
73240;BME280;61452;40.054;4.110;2023-04-30T19:13:05;101689.44;;;20.68;60.38
73240;BME280;61452;40.054;4.110;2023-04-30T19:18:07;101684.44;;;20.63;60.46
73240;BME280;61452;40.054;4.110;2023-04-30T19:23:11;101702.16;;;20.64;60.32
73240;BME280;61452;40.054;4.110;2023-04-30T19:28:13;101698.28;;;20.68;60.29
73240;BME280;61452;40.054;4.110;2023-04-30T19:33:16;101700.34;;;20.65;60.14
73240;BME280;61452;40.054;4.110;2023-04-30T19:38:22;101703.84;;;20.65;60.26
73240;BME280;61452;40.054;4.110;2023-04-30T19:43:24;101701.09;;;20.67;60.22
73240;BME280;61452;40.054;4.110;2023-04-30T19:48:27;101700.94;;;20.68;60.04
73240;BME280;61452;40.054;4.110;2023-04-30T19:53:29;101705.88;;;20.62;60.19
73240;BME280;61452;40.054;4.110;2023-04-30T19:58:32;101711.59;;;20.68;60.04
73240;BME280;61452;40.054;4.110;2023-04-30T20:03:34;101716.84;;;20.70;59.91
73240;BME280;61452;40.054;4.110;2023-04-30T20:08:36;101733.28;;;20.64;59.79
73240;BME280;61452;40.054;4.110;2023-04-30T20:13:38;101745.56;;;20.66;59.95
73240;BME280;61452;40.054;4.110;2023-04-30T20:18:40;101748.94;;;20.68;59.90
73240;BME280;61452;40.054;4.110;2023-04-30T20:23:43;101738.53;;;20.65;59.87
73240;BME280;61452;40.054;4.110;2023-04-30T20:28:45;101737.88;;;20.62;59.99
73240;BME280;61452;40.054;4.110;2023-04-30T20:33:47;101735.75;;;20.67;59.64
73240;BME280;61452;40.054;4.110;2023-04-30T20:38:49;101728.47;;;20.69;59.81
73240;BME280;61452;40.054;4.110;2023-04-30T20:43:54;101731.84;;;20.59;59.81
73240;BME280;61452;40.054;4.110;2023-04-30T20:48:57;101733.06;;;20.67;59.60
73240;BME280;61452;40.054;4.110;2023-04-30T20:54:04;101740.09;;;20.68;59.63
73240;BME280;61452;40.054;4.110;2023-04-30T20:59:09;101741.41;;;20.62;59.52
73240;BME280;61452;40.054;4.110;2023-04-30T21:04:11;101733.41;;;20.62;59.58
73240;BME280;61452;40.054;4.110;2023-04-30T21:09:13;101740.53;;;20.62;59.55
73240;BME280;61452;40.054;4.110;2023-04-30T21:14:16;101735.47;;;20.58;59.56
73240;BME280;61452;40.054;4.110;2023-04-30T21:19:18;101733.66;;;20.59;59.61
73240;BME280;61452;40.054;4.110;2023-04-30T21:24:20;101737.88;;;20.62;59.45
73240;BME280;61452;40.054;4.110;2023-04-30T21:29:22;101736.22;;;20.61;59.49
73240;BME280;61452;40.054;4.110;2023-04-30T21:34:24;101745.16;;;20.59;59.18
73240;BME280;61452;40.054;4.110;2023-04-30T21:39:28;101755.72;;;20.61;59.16
73240;BME280;61452;40.054;4.110;2023-04-30T21:44:30;101743.00;;;20.65;59.05
73240;BME280;61452;40.054;4.110;2023-04-30T21:49:36;101739.47;;;20.64;59.04
73240;BME280;61452;40.054;4.110;2023-04-30T21:54:38;101737.06;;;20.61;59.03
73240;BME280;61452;40.054;4.110;2023-04-30T21:59:40;101735.00;;;20.65;59.12
73240;BME280;61452;40.054;4.110;2023-04-30T22:04:43;101732.09;;;20.68;58.97
73240;BME280;61452;40.054;4.110;2023-04-30T22:09:45;101728.81;;;20.64;58.80
73240;BME280;61452;40.054;4.110;2023-04-30T22:14:51;101721.06;;;20.61;58.87
73240;BME280;61452;40.054;4.110;2023-04-30T22:19:56;101735.22;;;20.62;58.97
73240;BME280;61452;40.054;4.110;2023-04-30T22:24:58;101731.72;;;20.61;58.84
73240;BME280;61452;40.054;4.110;2023-04-30T22:30:01;101734.50;;;20.59;58.87
73240;BME280;61452;40.054;4.110;2023-04-30T22:35:03;101738.88;;;20.61;58.94
73240;BME280;61452;40.054;4.110;2023-04-30T22:40:08;101733.41;;;20.62;58.76
73240;BME280;61452;40.054;4.110;2023-04-30T22:45:10;101728.81;;;20.64;58.82
73240;BME280;61452;40.054;4.110;2023-04-30T22:50:13;101736.06;;;20.62;58.76
73240;BME280;61452;40.054;4.110;2023-04-30T22:55:15;101720.22;;;20.61;58.87
73240;BME280;61452;40.054;4.110;2023-04-30T23:00:18;101724.69;;;20.60;58.82
73240;BME280;61452;40.054;4.110;2023-04-30T23:05:21;101714.59;;;20.52;58.72
73240;BME280;61452;40.054;4.110;2023-04-30T23:10:23;101739.38;;;20.66;58.69
73240;BME280;61452;40.054;4.110;2023-04-30T23:15:25;101729.66;;;20.65;58.63
73240;BME280;61452;40.054;4.110;2023-04-30T23:20:27;101728.91;;;20.63;58.64
73240;BME280;61452;40.054;4.110;2023-04-30T23:25:30;101728.91;;;20.63;58.78
73240;BME280;61452;40.054;4.110;2023-04-30T23:30:36;101729.56;;;20.66;58.80
73240;BME280;61452;40.054;4.110;2023-04-30T23:35:42;101721.66;;;20.65;59.15
73240;BME280;61452;40.054;4.110;2023-04-30T23:40:45;101730.63;;;20.64;59.37
73240;BME280;61452;40.054;4.110;2023-04-30T23:45:47;101722.41;;;20.67;58.75
73240;BME280;61452;40.054;4.110;2023-04-30T23:50:59;101716.22;;;20.66;58.62
73240;BME280;61452;40.054;4.110;2023-04-30T23:56:02;101707.59;;;20.63;59.08
